Time;durP1;ratioP1;P1;durP2;ratioP2;P2;SDS_P1;SDS_P2;PMS_P1;PMS_P2;Temp;Humidity;BMP_temperature;BMP_pressure;BME280_temperature;BME280_humidity;BME280_pressure;Samples;Min_cycle;Max_cycle;Signal;HPM_P1;HPM_P2
2023/07/02 00:00:06;;;;;;;6.60;4.30;;;;;;;15.67;100.00;99801.37;106020;1262;61247;-72
2023/07/02 00:02:33;;;;;;;7.20;4.10;;;;;;;15.66;100.00;99808.95;106850;1258;73608;-72
2023/07/02 00:04:59;;;;;;;6.10;4.00;;;;;;;15.67;100.00;99811.20;106455;1257;69877;-72
2023/07/02 00:07:26;;;;;;;8.00;4.60;;;;;;;15.66;100.00;99799.73;106119;1262;71680;-72
2023/07/02 00:09:53;;;;;;;7.10;3.80;;;;;;;15.65;100.00;99798.11;106554;1257;62837;-73
2023/07/02 00:12:20;;;;;;;9.50;3.90;;;;;;;15.64;100.00;99801.29;106188;1262;62874;-72
2023/07/02 00:14:47;;;;;;;6.20;4.00;;;;;;;15.62;100.00;99797.71;106464;1256;74677;-72
2023/07/02 00:17:14;;;;;;;4.70;3.50;;;;;;;15.60;100.00;99794.56;106114;1257;69787;-71
2023/07/02 00:19:41;;;;;;;7.30;3.40;;;;;;;15.58;100.00;99790.50;105935;1262;73302;-75
2023/07/02 00:22:09;;;;;;;5.70;3.60;;;;;;;15.56;100.00;99787.23;108027;1256;61713;-74
2023/07/02 00:24:37;;;;;;;4.60;2.90;;;;;;;15.55;100.00;99787.38;106140;1257;61282;-72
2023/07/02 00:27:04;;;;;;;5.90;3.10;;;;;;;15.52;100.00;99788.11;106179;1257;74993;-72
2023/07/02 00:29:31;;;;;;;5.40;3.00;;;;;;;15.51;100.00;99792.48;106574;1257;71251;-74
2023/07/02 00:31:58;;;;;;;4.90;3.00;;;;;;;15.50;100.00;99794.59;106531;1258;71336;-74
2023/07/02 00:34:26;;;;;;;6.20;2.90;;;;;;;15.48;100.00;99792.78;106331;1257;61115;-73
2023/07/02 00:36:53;;;;;;;4.50;2.90;;;;;;;15.46;100.00;99796.10;106792;1259;61202;-73
2023/07/02 00:39:20;;;;;;;8.40;2.70;;;;;;;15.43;100.00;99800.79;106594;1257;73524;-74
2023/07/02 00:41:47;;;;;;;5.40;2.70;;;;;;;15.40;100.00;99805.08;105840;1261;865301;-73
2023/07/02 00:44:14;;;;;;;5.90;2.60;;;;;;;15.37;100.00;99806.39;106521;1257;73483;-72
2023/07/02 00:46:41;;;;;;;4.60;2.70;;;;;;;15.35;100.00;99808.85;106511;1258;61993;-73
2023/07/02 00:49:09;;;;;;;5.30;2.50;;;;;;;15.32;100.00;99811.93;106359;1256;61595;-73
2023/07/02 00:51:37;;;;;;;5.60;2.50;;;;;;;15.29;100.00;99805.94;106271;1262;74739;-73
2023/07/02 00:54:04;;;;;;;5.30;2.40;;;;;;;15.26;100.00;99802.80;106346;1256;71746;-73
2023/07/02 00:56:30;;;;;;;5.30;2.80;;;;;;;15.21;100.00;99800.70;106440;1257;72778;-72
2023/07/02 00:58:58;;;;;;;4.50;2.70;;;;;;;15.17;100.00;99797.59;106364;1257;61264;-73
2023/07/02 01:01:31;;;;;;;8.90;2.70;;;;;;;15.11;100.00;99800.23;106384;1256;61294;-73
2023/07/02 01:04:03;;;;;;;7.30;2.80;;;;;;;15.06;100.00;99802.38;108359;1257;74717;-73
2023/07/02 01:06:35;;;;;;;5.50;2.50;;;;;;;15.01;100.00;99800.27;108202;1258;70294;-75
2023/07/02 01:09:04;;;;;;;8.60;2.90;;;;;;;14.96;100.00;99800.14;108883;1256;72625;-74
2023/07/02 01:11:38;;;;;;;6.20;2.80;;;;;;;14.91;100.00;99801.40;108960;1256;60515;-73
2023/07/02 01:14:18;;;;;;;5.30;2.30;;;;;;;14.87;100.00;99804.43;107432;1256;61071;-73
2023/07/02 01:16:47;;;;;;;3.90;2.70;;;;;;;14.84;100.00;99793.23;108014;1256;73464;-71
2023/07/02 01:19:40;;;;;;;5.20;2.80;;;;;;;14.80;100.00;99789.08;106017;1259;70501;-72
2023/07/02 01:22:08;;;;;;;6.20;3.10;;;;;;;14.76;100.00;99785.97;106487;1257;71606;-72
2023/07/02 01:24:36;;;;;;;6.00;2.70;;;;;;;14.72;100.00;99785.04;106508;1256;62068;-73
2023/07/02 01:27:03;;;;;;;5.00;2.60;;;;;;;14.66;100.00;99782.55;106872;1256;62489;-74
2023/07/02 01:29:31;;;;;;;5.90;3.30;;;;;;;14.61;100.00;99773.13;106365;1256;75187;-72
2023/07/02 01:31:58;;;;;;;5.70;2.90;;;;;;;14.57;100.00;99773.02;106661;1259;71142;-73
2023/07/02 01:34:24;;;;;;;5.70;3.00;;;;;;;14.53;100.00;99771.27;106974;1257;71779;-73
2023/07/02 01:36:51;;;;;;;7.00;3.10;;;;;;;14.51;100.00;99780.70;106461;1256;61834;-72
2023/07/02 01:39:18;;;;;;;7.00;3.50;;;;;;;14.48;100.00;99783.61;106864;1257;60570;-72
2023/07/02 01:41:53;;;;;;;4.90;3.20;;;;;;;14.45;100.00;99782.82;106461;1257;72582;-72
2023/07/02 01:44:21;;;;;;;9.50;3.60;;;;;;;14.43;100.00;99774.92;106392;1256;71272;-73
2023/07/02 01:46:48;;;;;;;8.90;3.60;;;;;;;14.41;100.00;99778.98;106395;1257;72708;-72
2023/07/02 01:49:17;;;;;;;6.50;3.30;;;;;;;14.40;100.00;99783.58;106751;1256;61764;-73
2023/07/02 01:51:50;;;;;;;7.50;3.10;;;;;;;14.39;100.00;99782.08;106732;1256;61207;-73
2023/07/02 01:54:22;;;;;;;6.30;3.00;;;;;;;14.38;100.00;99787.73;106569;1258;74891;-74
2023/07/02 01:56:49;;;;;;;6.60;3.40;;;;;;;14.39;100.00;99787.81;106359;1256;70362;-72
2023/07/02 01:59:19;;;;;;;4.10;2.90;;;;;;;14.40;100.00;99796.55;106883;1258;72707;-73
2023/07/02 02:01:46;;;;;;;7.50;3.30;;;;;;;14.41;100.00;99798.67;106576;1255;62154;-71
2023/07/02 02:04:13;;;;;;;6.30;3.20;;;;;;;14.42;100.00;99797.51;106703;1257;61334;-72
2023/07/02 02:06:41;;;;;;;7.70;3.90;;;;;;;14.42;100.00;99799.02;106109;1257;73581;-73
2023/07/02 02:09:09;;;;;;;6.30;3.30;;;;;;;14.43;100.00;99796.08;107032;1256;70968;-74
2023/07/02 02:11:39;;;;;;;4.90;2.90;;;;;;;14.45;100.00;99801.33;106369;1255;73514;-73
2023/07/02 02:14:06;;;;;;;6.70;3.40;;;;;;;14.46;100.00;99800.17;106471;1256;61267;-72
2023/07/02 02:16:36;;;;;;;6.90;3.40;;;;;;;14.48;100.00;99801.98;106363;1256;61760;-71
2023/07/02 02:19:03;;;;;;;8.10;3.60;;;;;;;14.52;100.00;99804.26;106413;1256;73265;-72
2023/07/02 02:21:30;;;;;;;5.20;3.40;;;;;;;14.53;100.00;99805.84;106513;1256;71146;-73
2023/07/02 02:23:57;;;;;;;7.40;3.80;;;;;;;14.55;100.00;99807.23;106837;1256;73465;-71
2023/07/02 02:26:25;;;;;;;6.50;3.70;;;;;;;14.56;100.00;99811.96;107666;1259;61404;-71
2023/07/02 02:28:52;;;;;;;8.30;4.00;;;;;;;14.58;100.00;99809.52;106631;1256;62159;-71
2023/07/02 02:31:19;;;;;;;8.00;3.80;;;;;;;14.61;100.00;99808.78;106410;1258;72550;-74
2023/07/02 02:33:46;;;;;;;7.10;3.80;;;;;;;14.64;100.00;99811.54;106160;1255;69933;-73
2023/07/02 02:36:13;;;;;;;6.10;4.00;;;;;;;14.66;100.00;99810.33;106350;1256;71547;-71
2023/07/02 02:38:40;;;;;;;6.70;3.90;;;;;;;14.70;100.00;99815.92;106448;1256;62268;-75
2023/07/02 02:41:08;;;;;;;8.30;4.00;;;;;;;14.71;100.00;99815.02;106574;1256;61352;-72
2023/07/02 02:43:35;;;;;;;6.20;4.00;;;;;;;14.73;100.00;99810.23;106789;1257;75260;-73
2023/07/02 02:46:02;;;;;;;8.80;4.50;;;;;;;14.76;100.00;99806.20;106987;1256;69940;-72
2023/07/02 02:48:29;;;;;;;6.40;4.10;;;;;;;14.79;100.00;99806.19;106342;1256;72653;-74
2023/07/02 02:50:56;;;;;;;6.20;4.40;;;;;;;14.81;100.00;99807.90;106533;1257;62050;-71
2023/07/02 02:53:23;;;;;;;5.60;4.50;;;;;;;14.82;100.00;99805.33;106299;1256;61347;-73
2023/07/02 02:55:50;;;;;;;6.60;4.70;;;;;;;14.84;100.00;99805.75;107005;1256;74153;-73
2023/07/02 02:58:16;;;;;;;7.40;5.20;;;;;;;14.87;100.00;99806.29;106638;1259;70258;-72
2023/07/02 03:00:45;;;;;;;6.90;4.90;;;;;;;14.88;100.00;99809.97;106815;1259;72980;-73
2023/07/02 03:03:13;;;;;;;9.20;4.80;;;;;;;14.89;100.00;99812.02;106837;1256;62520;-74
2023/07/02 03:05:41;;;;;;;8.20;4.80;;;;;;;14.89;100.00;99803.21;106822;1262;61334;-72
2023/07/02 03:08:08;;;;;;;6.40;5.10;;;;;;;14.91;100.00;99803.95;106488;1256;74730;-73
2023/07/02 03:10:34;;;;;;;9.30;5.00;;;;;;;14.91;100.00;99802.24;106528;1255;70025;-74
2023/07/02 03:13:02;;;;;;;7.80;4.80;;;;;;;14.91;100.00;99801.06;106174;1256;71559;-73
2023/07/02 03:15:29;;;;;;;8.30;5.00;;;;;;;14.90;100.00;99799.19;106766;1255;61225;-74
2023/07/02 03:17:56;;;;;;;6.70;4.60;;;;;;;14.91;100.00;99796.48;106597;1259;60246;-72
2023/07/02 03:20:23;;;;;;;7.10;4.40;;;;;;;14.91;100.00;99798.39;106941;1257;75852;-72
2023/07/02 03:22:50;;;;;;;8.60;5.10;;;;;;;14.92;100.00;99805.94;106321;1257;71033;-72
2023/07/02 03:25:17;;;;;;;10.00;5.00;;;;;;;14.91;100.00;99805.08;107235;1256;72825;-73
2023/07/02 03:27:44;;;;;;;11.00;5.20;;;;;;;14.92;100.00;99805.37;108158;1257;60508;-73
2023/07/02 03:30:12;;;;;;;6.60;5.00;;;;;;;14.92;100.00;99803.55;106696;1256;61298;-73
2023/07/02 03:32:39;;;;;;;9.10;5.40;;;;;;;14.93;100.00;99806.21;106208;1257;73677;-73
2023/07/02 03:35:06;;;;;;;8.00;4.60;;;;;;;14.94;100.00;99809.08;107764;1256;69641;-73
2023/07/02 03:37:33;;;;;;;10.00;5.00;;;;;;;14.96;100.00;99808.67;107070;1256;72795;-73
2023/07/02 03:40:00;;;;;;;10.10;4.80;;;;;;;14.96;100.00;99807.03;106622;1256;61234;-72
2023/07/02 03:42:26;;;;;;;7.90;5.00;;;;;;;14.98;100.00;99807.18;106361;1256;61272;-72
2023/07/02 03:44:53;;;;;;;7.20;5.10;;;;;;;15.00;100.00;99808.91;106471;1256;61252;-72
2023/07/02 03:47:20;;;;;;;7.20;4.80;;;;;;;15.02;100.00;99809.86;107299;1256;72261;-72
2023/07/02 03:49:48;;;;;;;9.20;5.00;;;;;;;15.05;100.00;99810.58;106608;1255;71026;-73
2023/07/02 03:52:15;;;;;;;8.20;5.00;;;;;;;15.04;100.00;99807.20;106041;1257;62230;-72
2023/07/02 03:54:41;;;;;;;7.70;5.00;;;;;;;15.06;100.00;99805.96;106418;1255;61266;-71
2023/07/02 03:57:09;;;;;;;5.90;5.10;;;;;;;15.07;100.00;99805.21;106464;1256;73161;-71
2023/07/02 03:59:35;;;;;;;8.60;5.20;;;;;;;15.09;100.00;99810.70;106879;1256;70233;-72
2023/07/02 04:02:02;;;;;;;9.40;5.40;;;;;;;15.10;100.00;99808.16;106451;1256;72065;-72
2023/07/02 04:04:29;;;;;;;10.10;5.30;;;;;;;15.13;100.00;99813.64;106187;1256;61593;-74
2023/07/02 04:06:57;;;;;;;8.10;5.10;;;;;;;15.14;100.00;99810.45;106180;1255;61154;-71
2023/07/02 04:09:23;;;;;;;10.20;5.50;;;;;;;15.17;100.00;99805.98;106337;1259;74853;-73
2023/07/02 04:11:50;;;;;;;9.20;5.50;;;;;;;15.18;100.00;99814.52;106542;1256;71626;-70
2023/07/02 04:14:17;;;;;;;8.80;5.50;;;;;;;15.19;100.00;99824.36;106410;1256;71389;-72
2023/07/02 04:16:45;;;;;;;8.00;5.60;;;;;;;15.18;100.00;99831.00;106775;1260;61347;-72
2023/07/02 04:19:11;;;;;;;9.30;5.70;;;;;;;15.16;100.00;99836.58;106408;1256;62782;-72
2023/07/02 04:21:39;;;;;;;7.90;5.70;;;;;;;15.16;100.00;99837.11;106159;1257;73428;-74
2023/07/02 04:24:07;;;;;;;6.90;5.90;;;;;;;15.16;100.00;99829.63;106441;1256;69916;-73
2023/07/02 04:26:34;;;;;;;7.60;5.90;;;;;;;15.15;100.00;99829.27;106860;1256;72638;-73
2023/07/02 04:29:21;;;;;;;11.10;5.90;;;;;;;15.15;100.00;99826.08;108857;1256;61764;-72
2023/07/02 04:31:48;;;;;;;6.40;5.60;;;;;;;15.16;100.00;99822.89;107873;1256;61444;-70
2023/07/02 04:34:15;;;;;;;8.20;5.20;;;;;;;15.16;100.00;99824.40;107205;1259;73458;-71
2023/07/02 04:36:43;;;;;;;8.50;5.30;;;;;;;15.19;100.00;99826.05;106782;1256;70082;-71
2023/07/02 04:39:10;;;;;;;10.80;5.30;;;;;;;15.21;100.00;99831.64;106178;1255;71705;-72
2023/07/02 04:41:37;;;;;;;6.70;5.10;;;;;;;15.25;100.00;99831.48;106822;1256;62446;-72
2023/07/02 04:44:04;;;;;;;8.80;5.00;;;;;;;15.29;100.00;99838.41;108283;1257;60448;-72
2023/07/02 04:46:31;;;;;;;8.90;4.80;;;;;;;15.32;100.00;99832.61;108940;1256;74667;-72
2023/07/02 04:48:58;;;;;;;8.10;5.20;;;;;;;15.33;100.00;99833.98;108343;1256;71781;-73
2023/07/02 04:51:25;;;;;;;10.30;4.80;;;;;;;15.33;100.00;99839.01;108474;1256;71449;-73
2023/07/02 04:53:52;;;;;;;10.70;4.40;;;;;;;15.32;100.00;99843.14;108094;1257;61378;-71
2023/07/02 04:56:19;;;;;;;8.30;4.20;;;;;;;15.28;100.00;99845.61;106579;1256;61254;-72
2023/07/02 04:58:46;;;;;;;9.50;4.40;;;;;;;15.24;99.97;99841.80;106280;1257;73607;-71
2023/07/02 05:01:12;;;;;;;9.70;4.50;;;;;;;15.20;98.69;99846.33;106195;1257;71503;-71
2023/07/02 05:03:39;;;;;;;10.00;4.90;;;;;;;15.17;98.59;99846.42;106820;1257;71396;-72
2023/07/02 05:06:07;;;;;;;10.80;5.00;;;;;;;15.15;98.19;99852.78;107672;1256;62260;-72
2023/07/02 05:08:34;;;;;;;11.00;4.50;;;;;;;15.14;98.26;99851.16;106904;1256;61260;-72
2023/07/02 05:11:01;;;;;;;10.50;4.80;;;;;;;15.14;98.58;99846.39;106879;1256;74690;-71
2023/07/02 05:13:28;;;;;;;8.30;4.50;;;;;;;15.14;98.84;99850.83;106761;1256;71047;-73
2023/07/02 05:15:55;;;;;;;10.50;4.90;;;;;;;15.14;98.83;99853.83;106667;1256;70569;-73
2023/07/02 05:18:22;;;;;;;8.50;4.70;;;;;;;15.12;98.63;99858.69;106528;1256;61369;-73
2023/07/02 05:20:49;;;;;;;9.10;4.70;;;;;;;15.13;98.77;99849.52;106603;1256;61460;-72
2023/07/02 05:23:16;;;;;;;8.90;4.80;;;;;;;15.15;99.13;99849.69;106679;1256;73674;-72
2023/07/02 05:25:43;;;;;;;9.40;5.20;;;;;;;15.18;99.54;99853.77;106375;1257;71307;-73
2023/07/02 05:28:10;;;;;;;11.50;5.50;;;;;;;15.18;99.63;99857.78;106653;1255;74752;-72
2023/07/02 05:30:36;;;;;;;8.00;4.80;;;;;;;15.22;99.85;99859.77;106898;1256;61330;-72
2023/07/02 05:33:03;;;;;;;8.50;5.00;;;;;;;15.25;99.72;99864.07;106281;1257;61270;-73
2023/07/02 05:35:30;;;;;;;9.80;4.60;;;;;;;15.28;99.65;99863.41;106494;1256;73546;-73
2023/07/02 05:37:57;;;;;;;9.50;4.60;;;;;;;15.33;99.20;99863.52;106695;1256;71189;-73
2023/07/02 05:40:24;;;;;;;8.90;4.60;;;;;;;15.40;98.53;99863.58;106874;1257;71113;-73
2023/07/02 05:42:51;;;;;;;9.10;4.30;;;;;;;15.47;97.52;99856.21;106732;1257;61716;-74
2023/07/02 05:45:18;;;;;;;10.00;4.90;;;;;;;15.57;96.69;99858.16;106619;1256;60409;-73
2023/07/02 05:47:45;;;;;;;9.90;4.70;;;;;;;15.63;95.56;99859.83;107152;1256;75207;-74
2023/07/02 05:50:12;;;;;;;8.50;4.30;;;;;;;15.72;95.20;99868.36;106443;1255;71449;-73
2023/07/02 05:52:39;;;;;;;9.90;4.50;;;;;;;15.78;94.52;99868.11;106261;1256;71847;-73
2023/07/02 05:55:10;;;;;;;9.40;4.70;;;;;;;15.79;93.98;99869.49;106975;1256;61573;-73
2023/07/02 05:57:38;;;;;;;10.50;5.00;;;;;;;15.79;94.23;99874.16;107415;1263;61164;-75
2023/07/02 06:00:05;;;;;;;10.30;4.90;;;;;;;15.75;93.78;99877.75;106677;1257;74631;-72
2023/07/02 06:02:32;;;;;;;9.30;4.60;;;;;;;15.71;94.48;99878.70;106966;1259;71955;-72
2023/07/02 06:05:01;;;;;;;9.80;4.90;;;;;;;15.66;94.89;99879.04;106820;1256;72368;-74
2023/07/02 06:07:29;;;;;;;10.10;4.50;;;;;;;15.69;95.50;99883.97;106733;1257;62736;-74
2023/07/02 06:09:55;;;;;;;10.80;4.60;;;;;;;15.72;95.81;99883.13;106347;1256;61283;-73
2023/07/02 06:12:22;;;;;;;12.20;5.10;;;;;;;15.79;96.08;99891.95;106323;1256;72779;-72
2023/07/02 06:14:49;;;;;;;11.70;4.80;;;;;;;15.86;95.70;99885.72;106399;1256;71189;-72
2023/07/02 06:17:16;;;;;;;11.50;4.60;;;;;;;15.94;94.21;99886.55;106639;1257;73120;-74
2023/07/02 06:19:44;;;;;;;10.40;4.70;;;;;;;16.03;93.66;99889.61;106365;1255;61272;-74
2023/07/02 06:22:11;;;;;;;9.20;4.40;;;;;;;16.13;92.44;99891.52;106413;1256;61253;-72
2023/07/02 06:24:38;;;;;;;11.30;4.70;;;;;;;16.21;90.26;99892.08;106452;1256;73530;-73
2023/07/02 06:27:05;;;;;;;8.00;4.00;;;;;;;16.30;90.27;99886.20;106877;1257;70131;-73
2023/07/02 06:29:31;;;;;;;9.40;4.20;;;;;;;16.41;89.50;99884.33;106626;1256;71510;-75
2023/07/02 06:31:59;;;;;;;11.30;4.50;;;;;;;16.50;88.61;99888.15;106401;1256;62019;-71
2023/07/02 06:34:26;;;;;;;10.10;4.00;;;;;;;16.61;87.27;99887.42;106275;1255;61292;-73
2023/07/02 06:36:53;;;;;;;10.80;4.10;;;;;;;16.66;84.97;99894.86;106677;1259;74820;-73
2023/07/02 06:39:20;;;;;;;11.60;4.30;;;;;;;16.68;83.25;99894.38;106215;1256;70510;-72
2023/07/02 06:41:47;;;;;;;11.60;4.70;;;;;;;16.77;83.62;99892.24;106883;1255;71744;-72
2023/07/02 06:44:14;;;;;;;12.10;4.60;;;;;;;16.83;82.16;99897.30;107116;1256;61279;-75
2023/07/02 06:46:40;;;;;;;11.50;4.40;;;;;;;16.92;82.22;99890.02;106298;1256;61588;-73
2023/07/02 06:49:07;;;;;;;11.90;4.80;;;;;;;17.03;82.03;99894.27;106391;1255;74405;-77
2023/07/02 06:51:34;;;;;;;11.30;4.70;;;;;;;17.17;82.04;99905.41;106484;1259;72563;-74
2023/07/02 06:54:01;;;;;;;13.10;4.50;;;;;;;17.23;78.34;99905.29;106800;1256;71816;-72
2023/07/02 06:56:28;;;;;;;12.30;4.70;;;;;;;17.26;76.87;99911.77;106480;1256;62099;-73
2023/07/02 06:58:55;;;;;;;12.30;5.00;;;;;;;17.32;76.55;99917.89;106258;1256;61288;-75
2023/07/02 07:01:22;;;;;;;11.60;4.70;;;;;;;17.40;76.15;99910.75;106612;1256;74615;-75
2023/07/02 07:03:49;;;;;;;14.90;5.30;;;;;;;17.43;73.45;99922.66;107007;1256;69898;-74
2023/07/02 07:06:15;;;;;;;11.30;4.70;;;;;;;17.46;70.43;99931.14;106887;1256;71627;-72
2023/07/02 07:08:42;;;;;;;11.30;4.60;;;;;;;17.46;67.53;99926.95;106302;1262;61270;-74
2023/07/02 07:11:09;;;;;;;11.30;4.80;;;;;;;17.52;69.74;99916.04;106992;1256;59657;-74
2023/07/02 07:13:36;;;;;;;11.80;4.50;;;;;;;17.66;71.22;99927.60;106396;1257;73759;-74
2023/07/02 07:16:03;;;;;;;13.40;4.80;;;;;;;17.79;72.24;99924.74;106396;1256;70258;-73
2023/07/02 07:18:30;;;;;;;8.60;4.00;;;;;;;17.96;73.34;99930.45;106520;1259;71837;-74
2023/07/02 07:20:59;;;;;;;13.50;4.40;;;;;;;18.08;72.70;99926.42;107406;1256;60457;-73
2023/07/02 07:23:25;;;;;;;10.80;4.30;;;;;;;18.22;72.22;99933.89;108816;1256;59300;-72
2023/07/02 07:25:52;;;;;;;10.90;5.10;;;;;;;18.37;71.47;99941.16;107119;1256;73989;-72
2023/07/02 07:28:19;;;;;;;11.00;4.10;;;;;;;18.44;70.21;99943.68;106550;1256;72976;-74
2023/07/02 07:30:45;;;;;;;10.10;4.20;;;;;;;18.40;70.45;99944.37;106639;1261;71364;-73
2023/07/02 07:33:13;;;;;;;10.80;4.50;;;;;;;18.40;69.23;99950.98;106536;1257;62156;-74
2023/07/02 07:35:39;;;;;;;11.50;5.00;;;;;;;18.34;68.50;99945.42;106953;1256;61129;-73
2023/07/02 07:38:06;;;;;;;10.50;4.00;;;;;;;18.23;68.60;99948.95;107146;1258;74201;-77
2023/07/02 07:40:33;;;;;;;8.50;4.00;;;;;;;18.13;68.08;99957.69;106700;1256;71205;-76
2023/07/02 07:43:00;;;;;;;11.70;4.30;;;;;;;18.16;67.77;99956.62;107154;1255;72653;-74
2023/07/02 07:45:26;;;;;;;10.20;4.60;;;;;;;18.20;67.98;99957.00;108624;1256;59886;-74
2023/07/02 07:47:53;;;;;;;11.50;5.00;;;;;;;18.21;67.63;99963.89;108934;1257;59321;-75
2023/07/02 07:50:20;;;;;;;9.00;4.70;;;;;;;18.26;66.68;99962.52;106804;1257;72633;-76
2023/07/02 07:52:48;;;;;;;10.00;3.90;;;;;;;18.30;65.78;99966.14;107625;1256;69994;-78
2023/07/02 07:55:14;;;;;;;8.70;4.50;;;;;;;18.38;65.31;99954.44;106792;1262;71264;-75
2023/07/02 07:57:42;;;;;;;14.20;5.10;;;;;;;18.46;66.14;99970.95;106817;1256;62084;-76
2023/07/02 08:00:09;;;;;;;11.40;4.80;;;;;;;18.51;65.50;99974.20;106581;1256;62442;-76
2023/07/02 08:02:36;;;;;;;10.60;4.60;;;;;;;18.46;62.95;99964.77;106649;1257;74785;-73
2023/07/02 08:05:04;;;;;;;11.40;5.00;;;;;;;18.44;63.16;99970.55;106453;1256;71176;-75
2023/07/02 08:07:31;;;;;;;11.00;5.10;;;;;;;18.42;63.58;99977.75;106717;1256;70890;-74
2023/07/02 08:09:58;;;;;;;12.40;4.90;;;;;;;18.38;63.36;99973.98;106762;1257;61255;-75
2023/07/02 08:12:29;;;;;;;12.10;5.60;;;;;;;18.31;62.62;99985.27;106343;1256;61231;-77
2023/07/02 08:14:56;;;;;;;13.90;4.60;;;;;;;18.23;61.97;99985.56;107161;1257;72184;-76
2023/07/02 08:17:23;;;;;;;9.70;4.70;;;;;;;18.23;63.12;99988.14;107318;1256;70141;-74
2023/07/02 08:19:50;;;;;;;10.80;4.80;;;;;;;18.20;63.01;99988.02;108997;1255;73400;-77
2023/07/02 08:22:17;;;;;;;10.80;5.30;;;;;;;18.15;60.95;99985.70;108773;1256;62533;-76
2023/07/02 08:24:44;;;;;;;11.40;5.50;;;;;;;18.16;61.92;99987.50;107607;1255;61233;-74
2023/07/02 08:27:13;;;;;;;12.00;5.50;;;;;;;18.19;63.02;99987.21;106527;1257;74674;-72
2023/07/02 08:29:40;;;;;;;11.00;5.00;;;;;;;18.22;63.02;100001.02;106878;1256;70131;-77
2023/07/02 08:32:07;;;;;;;10.90;4.80;;;;;;;18.15;60.48;100012.75;106880;1257;71781;-75
2023/07/02 08:34:34;;;;;;;12.00;5.10;;;;;;;18.09;61.00;100000.51;106776;1257;61320;-73
2023/07/02 08:37:01;;;;;;;11.20;5.00;;;;;;;18.09;61.12;100004.34;106472;1257;61743;-74
2023/07/02 08:39:28;;;;;;;10.70;5.00;;;;;;;18.21;60.28;100013.23;106856;1256;73558;-73
2023/07/02 08:41:54;;;;;;;13.00;4.50;;;;;;;18.33;60.07;100006.63;107140;1256;71202;-74
2023/07/02 08:44:22;;;;;;;11.00;4.80;;;;;;;18.37;60.14;100006.95;106659;1259;71571;-75
2023/07/02 08:46:50;;;;;;;10.60;4.90;;;;;;;18.39;60.61;100005.38;107207;1257;61292;-76
2023/07/02 08:49:17;;;;;;;12.10;5.20;;;;;;;18.45;59.93;100010.40;106680;1256;61372;-74
2023/07/02 08:51:46;;;;;;;12.20;5.20;;;;;;;18.63;59.16;100006.30;106565;1256;73394;-73
2023/07/02 08:54:14;;;;;;;11.10;4.80;;;;;;;18.85;58.08;100013.95;107041;1257;72131;-73
2023/07/02 08:56:41;;;;;;;12.80;5.30;;;;;;;18.96;55.15;100019.83;108889;1256;71835;-74
2023/07/02 08:59:08;;;;;;;9.70;5.00;;;;;;;18.89;54.37;100027.30;108633;1256;61217;-74
2023/07/02 09:01:52;;;;;;;11.10;5.30;;;;;;;18.76;54.33;100024.94;106582;1256;61266;-73
2023/07/02 09:04:21;;;;;;;11.00;4.90;;;;;;;18.65;56.05;100023.89;106910;1257;74697;-72
2023/07/02 09:06:49;;;;;;;10.80;5.00;;;;;;;18.77;55.89;100026.77;106760;1256;71731;-71
2023/07/02 09:09:15;;;;;;;9.30;4.80;;;;;;;18.94;54.20;100018.82;106343;1260;72205;-72
2023/07/02 09:11:51;;;;;;;8.50;4.50;;;;;;;19.13;54.02;100027.73;106036;1257;61271;-72
2023/07/02 09:14:29;;;;;;;14.20;4.80;;;;;;;19.35;51.57;100026.21;106660;1256;61269;-71
2023/07/02 09:17:02;;;;;;;9.90;5.00;;;;;;;19.56;51.89;100031.16;106985;1256;73987;-75
2023/07/02 09:19:29;;;;;;;12.30;5.20;;;;;;;19.74;51.07;100030.09;106533;1257;71041;-72
2023/07/02 09:22:01;;;;;;;11.00;4.70;;;;;;;19.79;50.52;100022.09;107015;1255;70842;-71
2023/07/02 09:24:30;;;;;;;11.50;4.80;;;;;;;19.84;49.47;100030.27;106173;1257;61807;-74
2023/07/02 09:27:01;;;;;;;9.40;4.60;;;;;;;19.95;49.69;100028.89;106069;1262;61810;-72
2023/07/02 09:29:30;;;;;;;11.50;5.40;;;;;;;19.89;48.46;100033.51;106526;1256;73530;-77
2023/07/02 09:31:59;;;;;;;10.60;4.50;;;;;;;19.87;47.76;100025.34;106513;1261;69650;-72
2023/07/02 09:34:37;;;;;;;11.70;5.10;;;;;;;19.89;48.92;100027.57;107266;1256;71752;-72
2023/07/02 09:37:05;;;;;;;11.00;4.90;;;;;;;19.96;48.44;100024.36;107306;1256;61228;-73
2023/07/02 09:39:34;;;;;;;10.70;5.00;;;;;;;19.95;48.84;100029.69;108873;1256;59035;-75
2023/07/02 09:42:04;;;;;;;9.00;4.60;;;;;;;19.96;48.40;100038.15;108724;1255;73419;-74
2023/07/02 09:44:33;;;;;;;12.40;5.10;;;;;;;19.80;47.83;100030.22;106300;1259;70584;-73
2023/07/02 09:47:05;;;;;;;12.10;4.90;;;;;;;19.63;49.01;100044.05;107943;1256;72678;-73
2023/07/02 09:49:49;;;;;;;11.50;5.00;;;;;;;19.69;49.83;100029.11;107903;1257;61316;-72
2023/07/02 09:52:16;;;;;;;11.90;4.90;;;;;;;19.88;49.95;100035.10;107084;1260;59264;-74
2023/07/02 09:54:44;;;;;;;10.40;4.60;;;;;;;19.99;48.09;100050.23;106455;1256;73886;-73
2023/07/02 09:57:11;;;;;;;10.70;4.50;;;;;;;20.17;47.06;100049.41;106385;1257;71418;-75
2023/07/02 09:59:38;;;;;;;9.80;4.60;;;;;;;20.30;45.93;100043.27;107879;1257;73214;-74
2023/07/02 10:02:05;;;;;;;8.70;4.70;;;;;;;20.33;46.27;100041.84;106208;1257;61752;-72
2023/07/02 10:04:46;;;;;;;9.20;4.50;;;;;;;20.30;46.15;100052.23;106423;1257;62793;-79
2023/07/02 10:07:26;;;;;;;10.10;5.00;;;;;;;20.27;45.99;100041.84;106196;1258;74702;-77
2023/07/02 10:09:53;;;;;;;12.00;5.10;;;;;;;20.37;46.42;100043.12;106787;1256;69982;-75
2023/07/02 10:12:21;;;;;;;9.30;5.30;;;;;;;20.47;46.76;100041.64;106548;1255;72652;-74
2023/07/02 10:14:51;;;;;;;11.90;5.00;;;;;;;20.49;45.07;100058.86;106486;1257;61845;-75
2023/07/02 10:17:29;;;;;;;9.70;5.00;;;;;;;20.54;44.80;100054.38;106274;1255;61289;-75
2023/07/02 10:20:01;;;;;;;9.20;4.50;;;;;;;20.51;44.25;100056.73;107776;1256;74462;-75
2023/07/02 10:22:28;;;;;;;8.80;4.70;;;;;;;20.28;44.66;100066.85;106565;1257;69844;-74
2023/07/02 10:25:00;;;;;;;9.60;5.00;;;;;;;20.19;44.68;100070.92;106036;1256;73906;-76
2023/07/02 10:27:38;;;;;;;10.00;5.00;;;;;;;20.20;45.75;100068.34;106587;1256;61709;-73
2023/07/02 10:30:07;;;;;;;9.30;4.30;;;;;;;20.32;45.99;100065.38;106639;1257;61261;-73
2023/07/02 10:32:35;;;;;;;9.50;4.60;;;;;;;20.42;44.75;100075.27;106345;1257;73779;-74
2023/07/02 10:35:14;;;;;;;7.80;3.80;;;;;;;20.32;43.85;100079.27;106501;1260;71236;-76
2023/07/02 10:37:41;;;;;;;9.70;4.40;;;;;;;20.34;45.22;100073.54;106986;1256;72775;-75
2023/07/02 10:40:09;;;;;;;8.00;4.10;;;;;;;20.37;44.65;100075.83;106562;1264;61360;-74
2023/07/02 10:43:07;;;;;;;8.80;4.10;;;;;;;20.31;44.30;100077.92;106869;1256;61228;-75
2023/07/02 10:45:36;;;;;;;7.60;4.60;;;;;;;20.38;44.01;100079.77;106865;1257;74664;-72
2023/07/02 10:48:09;;;;;;;9.30;4.30;;;;;;;20.54;44.11;100072.05;106875;1257;71287;-73
2023/07/02 10:50:36;;;;;;;8.30;4.00;;;;;;;20.86;44.47;100080.42;106638;1259;71402;-73
2023/07/02 10:53:03;;;;;;;9.00;4.50;;;;;;;20.99;43.21;100075.61;106667;1262;61356;-75
2023/07/02 10:55:31;;;;;;;9.40;4.50;;;;;;;21.01;42.66;100099.98;106818;1257;61756;-75
2023/07/02 10:58:08;;;;;;;7.20;3.80;;;;;;;20.95;42.71;100094.24;106418;1257;74691;-77
2023/07/02 11:00:45;;;;;;;9.30;4.30;;;;;;;20.93;42.57;100092.77;106002;1262;69651;-77
2023/07/02 11:03:21;;;;;;;8.80;4.30;;;;;;;20.93;42.95;100099.23;106267;1256;73377;-73
2023/07/02 11:05:50;;;;;;;11.30;4.80;;;;;;;20.98;43.66;100092.59;106274;1259;61351;-73
2023/07/02 11:08:21;;;;;;;10.70;3.90;;;;;;;21.21;43.66;100091.23;106861;1255;61235;-73
2023/07/02 11:10:47;;;;;;;11.30;4.90;;;;;;;21.30;43.11;100088.26;106378;1259;74478;-75
2023/07/02 11:13:16;;;;;;;10.70;4.90;;;;;;;21.23;42.65;100092.11;106128;1257;69943;-74
2023/07/02 11:15:45;;;;;;;10.10;4.80;;;;;;;21.25;43.27;100085.05;106646;1256;74259;-75
2023/07/02 11:18:20;;;;;;;8.00;4.40;;;;;;;21.20;42.98;100094.09;105937;1256;62181;-74
2023/07/02 11:20:47;;;;;;;8.40;3.70;;;;;;;21.21;43.67;100085.02;106370;1257;61337;-73